Terminal Aerodrome Forecast
Issued by NWS St Louis, MO

Home | Current Version | Previous Version | Graphics & Text | Print | Product List | Glossary On
Versions: 1 2 3 4 5 6 7 8 9 10 11 12 13 14 15 16 17 18 19 20 21 22 23 24 25 26 27 28 29
000
FTUS43 KLSX 262100 AAC
TAFSTL
TAF AMD
KSTL 262159Z 2622/2724 VRB03KT 2SM -DZSN BR VCSH OVC006
      TEMPO 2623/2701 1SM -SHSN BR OVC012
     FM270100 30006KT 6SM BR VCSH OVC009
     FM270500 32011KT P6SM OVC007
     FM271400 31012KT P6SM BKN015
     FM271800 31010KT P6SM SCT025 BKN250=

USA.gov is the U.S. government's official web portal to all federal, state and local government web resources and services.